createdAt,value
2022-11-15T07:07:07.396Z,68.64
2022-11-15T07:09:36.385Z,68.38
2022-11-15T07:12:07.738Z,68.09
2022-11-15T07:14:35.857Z,68.20
2022-11-15T07:17:06.425Z,68.00
2022-11-15T07:19:34.455Z,68.23
2022-11-15T07:22:02.294Z,68.13
2022-11-15T07:24:32.207Z,68.69
2022-11-15T07:27:00.394Z,68.01
2022-11-15T07:29:29.795Z,67.94
2022-11-15T07:31:57.678Z,68.34
2022-11-15T07:34:26.095Z,68.13
2022-11-15T07:36:54.369Z,67.93
2022-11-15T07:39:22.201Z,68.33
2022-11-15T07:42:12.277Z,68.21
2022-11-15T07:44:40.128Z,68.01
2022-11-15T07:47:08.082Z,68.29
2022-11-15T07:49:36.276Z,67.78
2022-11-15T07:52:04.091Z,67.90
2022-11-15T07:54:32.026Z,67.42
2022-11-15T07:57:06.944Z,67.58
2022-11-15T07:59:35.739Z,67.60
2022-11-15T08:02:04.986Z,67.89
2022-11-15T08:04:32.913Z,67.91
2022-11-15T08:07:00.936Z,67.61
2022-11-15T08:09:29.307Z,67.61
2022-11-15T08:11:57.079Z,67.51
2022-11-15T08:14:26.914Z,67.30
2022-11-15T08:16:56.333Z,67.34
2022-11-15T08:19:24.300Z,67.02
2022-11-15T08:21:52.638Z,66.82
2022-11-15T08:24:21.392Z,66.72
2022-11-15T08:26:49.894Z,66.46
2022-11-15T08:29:19.266Z,65.97
2022-11-15T08:31:48.448Z,65.38
2022-11-15T08:34:17.461Z,64.91
2022-11-15T08:36:46.353Z,65.40
2022-11-15T08:39:14.402Z,65.34
2022-11-15T08:41:44.355Z,65.10
2022-11-15T08:44:12.460Z,64.73
2022-11-15T08:46:40.695Z,64.23
2022-11-15T08:49:10.072Z,64.43
2022-11-15T08:51:37.932Z,64.18
2022-11-15T08:54:06.503Z,63.99
2022-11-15T08:56:34.347Z,64.78
2022-11-15T08:59:02.607Z,64.04
2022-11-15T09:01:30.467Z,64.19
2022-11-15T09:03:58.282Z,63.89
2022-11-15T09:06:28.022Z,64.09
2022-11-15T09:08:56.216Z,64.20
2022-11-15T09:11:24.990Z,63.85
2022-11-15T09:13:52.752Z,63.48
2022-11-15T09:16:21.062Z,63.68
2022-11-15T09:18:48.946Z,63.80
2022-11-15T09:21:16.733Z,63.12
2022-11-15T09:23:46.534Z,63.00
2022-11-15T09:26:15.199Z,63.14
2022-11-15T09:28:43.972Z,63.06
2022-11-15T09:31:12.379Z,62.84
2022-11-15T09:33:40.341Z,62.79
2022-11-15T09:36:10.570Z,63.23
2022-11-15T09:38:39.019Z,62.74
2022-11-15T09:41:35.100Z,62.38
2022-11-15T09:44:25.228Z,62.53
2022-11-15T09:47:04.053Z,63.58
2022-11-15T09:49:32.594Z,61.73
2022-11-15T09:52:01.016Z,61.75
2022-11-15T09:57:26.579Z,61.40
2022-11-15T10:00:38.868Z,61.40
2022-11-15T10:03:06.880Z,61.15
2022-11-15T10:05:40.360Z,60.94
2022-11-15T10:08:20.748Z,60.57
2022-11-15T10:11:09.680Z,60.35
2022-11-15T10:13:44.033Z,60.19
2022-11-15T10:16:36.471Z,60.56
2022-11-15T10:19:14.167Z,60.06
2022-11-15T10:21:51.965Z,60.29
2022-11-15T10:24:26.488Z,59.83
2022-11-15T10:26:54.878Z,59.94
2022-11-15T10:34:49.909Z,59.62
2022-11-15T10:37:33.113Z,59.84
2022-11-15T10:40:12.880Z,58.98
2022-11-15T10:42:41.286Z,58.98
2022-11-15T10:45:25.943Z,59.50
2022-11-15T10:47:54.271Z,59.09
2022-11-15T10:50:32.160Z,59.61
2022-11-15T10:53:03.979Z,58.98
2022-11-15T10:55:33.865Z,58.84
2022-11-15T10:58:06.791Z,58.82
2022-11-15T11:00:39.541Z,58.55
2022-11-15T11:03:10.345Z,59.31
2022-11-15T11:05:43.064Z,58.95
2022-11-15T11:08:29.817Z,59.07
2022-11-15T11:11:03.026Z,58.23
2022-11-15T11:16:44.826Z,58.97
2022-11-15T11:19:54.780Z,59.03
2022-11-15T11:22:49.291Z,58.43
2022-11-15T11:28:31.606Z,58.36
2022-11-15T11:31:16.306Z,58.61
2022-11-15T11:33:51.594Z,57.98
2022-11-15T11:36:31.064Z,58.20
2022-11-15T11:39:20.670Z,58.11
2022-11-15T11:42:06.052Z,57.16
2022-11-15T12:25:20.396Z,58.51
2022-11-15T12:27:56.753Z,57.86
2022-11-15T12:30:26.929Z,58.27
2022-11-15T12:32:58.425Z,58.53
2022-11-15T12:35:33.759Z,58.31
2022-11-15T12:38:01.665Z,58.85
2022-11-15T12:40:37.080Z,58.70
2022-11-15T12:43:33.631Z,58.79
2022-11-15T12:49:02.148Z,58.66
2022-11-15T12:52:10.018Z,58.92
2022-11-15T12:55:05.233Z,58.93
2022-11-15T12:57:48.437Z,58.94
2022-11-15T13:00:49.722Z,58.81
2022-11-15T13:03:31.020Z,58.95
2022-11-15T13:09:27.676Z,58.88
2022-11-15T13:11:55.944Z,59.35
2022-11-15T13:14:47.365Z,59.15
2022-11-15T13:20:02.070Z,59.12
2022-11-15T13:22:58.759Z,59.09
2022-11-15T13:25:59.970Z,59.15
2022-11-15T13:28:35.360Z,59.30
2022-11-15T13:31:24.364Z,58.81
2022-11-15T13:33:53.016Z,59.19
2022-11-15T13:36:29.928Z,59.24
2022-11-15T13:39:00.878Z,58.78
2022-11-15T13:41:31.513Z,58.61
2022-11-15T13:44:01.362Z,59.13
2022-11-15T13:46:32.186Z,58.90
2022-11-15T13:49:02.299Z,59.01
2022-11-15T13:51:38.011Z,59.29
2022-11-15T13:54:33.878Z,59.30
2022-11-15T13:57:14.628Z,59.04
2022-11-15T13:59:49.391Z,59.24
2022-11-15T14:02:21.624Z,59.37
2022-11-15T14:04:55.396Z,59.84
2022-11-15T14:07:26.237Z,59.48
2022-11-15T14:09:57.619Z,59.63
2022-11-15T19:19:32.007Z,70.11
2022-11-15T19:24:41.397Z,70.02
2022-11-15T19:27:12.762Z,70.10
2022-11-15T19:29:42.213Z,70.33
2022-11-15T19:32:10.321Z,70.54
2022-11-15T19:34:56.650Z,70.25
2022-11-15T19:37:37.740Z,70.40
2022-11-15T19:59:17.709Z,70.84
2022-11-15T20:01:47.595Z,70.62
2022-11-15T20:17:54.707Z,70.99
2022-11-15T20:20:22.884Z,70.97
2022-11-15T20:22:52.919Z,70.92
2022-11-15T20:25:37.037Z,70.31
2022-11-15T20:28:11.264Z,70.76
2022-11-15T20:30:40.360Z,70.79
2022-11-15T20:33:11.874Z,70.95
2022-11-15T20:35:40.672Z,70.67
2022-11-15T20:38:13.306Z,70.81
2022-11-15T20:41:00.228Z,70.94
2022-11-15T20:43:29.906Z,70.79
2022-11-15T20:45:59.761Z,70.55
2022-11-15T20:48:34.551Z,71.11
2022-11-15T20:51:09.662Z,70.97
2022-11-15T20:53:38.557Z,71.01
2022-11-15T20:56:10.020Z,70.78
2022-11-15T20:58:42.068Z,71.01
2022-11-15T21:01:15.108Z,71.04
2022-11-15T21:03:45.792Z,70.63
2022-11-15T21:06:14.379Z,71.16
2022-11-15T21:09:04.716Z,71.14
2022-11-15T21:11:50.989Z,71.29
2022-11-15T21:14:19.988Z,71.30
2022-11-15T21:16:48.866Z,70.88
2022-11-15T21:19:21.610Z,71.13
2022-11-15T21:21:55.541Z,70.97
2022-11-15T21:24:25.155Z,71.23
2022-11-15T21:26:54.673Z,70.96
2022-11-15T21:29:23.446Z,71.11
2022-11-15T21:31:53.777Z,71.11
2022-11-15T21:34:24.040Z,71.66
2022-11-15T21:36:52.651Z,71.24
2022-11-15T21:39:22.594Z,71.33
2022-11-15T21:44:48.244Z,71.20
2022-11-15T21:47:18.808Z,71.09
2022-11-15T21:49:49.492Z,71.59
2022-11-15T21:52:19.788Z,71.33
2022-11-15T21:54:52.115Z,71.45
2022-11-15T21:57:24.861Z,71.34
2022-11-15T22:00:10.346Z,71.32
2022-11-15T22:02:41.504Z,71.47
2022-11-15T22:05:11.673Z,71.40
2022-11-15T22:07:40.016Z,71.51
2022-11-15T22:10:11.352Z,71.76
2022-11-15T22:12:41.163Z,71.52
2022-11-15T22:15:11.135Z,71.49
2022-11-15T22:17:57.012Z,71.76
2022-11-15T22:20:44.858Z,71.44
2022-11-15T22:23:13.462Z,70.96
2022-11-15T22:25:44.642Z,71.37
2022-11-15T22:28:12.984Z,71.24
2022-11-15T22:30:42.884Z,71.25
2022-11-15T22:33:11.390Z,71.46
2022-11-15T22:35:43.726Z,71.69
2022-11-15T22:38:13.476Z,71.53
2022-11-15T22:40:41.738Z,71.72
2022-11-15T22:43:10.312Z,71.68
2022-11-15T22:45:39.099Z,71.94
2022-11-15T22:48:07.155Z,71.59
2022-11-15T22:50:36.481Z,71.80
2022-11-15T22:53:06.348Z,71.79
2022-11-15T22:55:37.150Z,72.12
2022-11-15T22:58:05.527Z,71.44
2022-11-15T23:00:33.818Z,71.50
2022-11-15T23:03:05.641Z,71.47
2022-11-15T23:05:33.877Z,71.96
2022-11-15T23:08:02.762Z,71.60
2022-11-15T23:10:51.849Z,71.58
2022-11-15T23:13:20.402Z,71.61
2022-11-15T23:16:07.216Z,71.75
2022-11-15T23:18:36.918Z,72.02
2022-11-15T23:21:13.027Z,71.67
2022-11-15T23:23:40.562Z,71.83
2022-11-15T23:26:11.479Z,71.96
2022-11-15T23:28:39.648Z,71.94
2022-11-15T23:31:26.819Z,71.65
2022-11-15T23:34:03.008Z,71.71
2022-11-15T23:36:31.580Z,71.91
2022-11-15T23:39:00.137Z,71.86
2022-11-15T23:41:29.770Z,71.81
2022-11-15T23:43:58.857Z,71.65
2022-11-15T23:46:27.318Z,71.90
2022-11-15T23:48:59.975Z,71.73
2022-11-15T23:51:28.805Z,71.62
2022-11-15T23:53:57.097Z,71.77
2022-11-15T23:56:29.173Z,71.91
2022-11-15T23:59:03.516Z,71.55
